sensor_id;sensor_type;location;lat;lon;timestamp;pressure;altitude;pressure_sealevel;temperature;humidity
5691;BME280;2870;42.680;23.364;2023-03-20T00:00:16;95453.31;;;6.98;72.45
5691;BME280;2870;42.680;23.364;2023-03-20T00:02:44;95445.09;;;6.86;72.16
5691;BME280;2870;42.680;23.364;2023-03-20T00:05:16;95443.88;;;6.63;73.17
5691;BME280;2870;42.680;23.364;2023-03-20T00:07:44;95442.16;;;6.60;73.63
5691;BME280;2870;42.680;23.364;2023-03-20T00:10:12;95435.28;;;6.61;73.51
5691;BME280;2870;42.680;23.364;2023-03-20T00:12:40;95442.81;;;6.66;73.53
5691;BME280;2870;42.680;23.364;2023-03-20T00:15:26;95442.56;;;6.45;74.00
5691;BME280;2870;42.680;23.364;2023-03-20T00:17:53;95443.78;;;6.50;73.69
5691;BME280;2870;42.680;23.364;2023-03-20T00:20:21;95438.91;;;6.56;73.55
5691;BME280;2870;42.680;23.364;2023-03-20T00:22:48;95439.91;;;6.58;73.92
5691;BME280;2870;42.680;23.364;2023-03-20T00:25:16;95434.75;;;6.44;74.07
5691;BME280;2870;42.680;23.364;2023-03-20T00:27:46;95436.38;;;6.33;74.73
5691;BME280;2870;42.680;23.364;2023-03-20T00:30:25;95418.34;;;6.16;75.67
5691;BME280;2870;42.680;23.364;2023-03-20T00:32:55;95427.25;;;6.33;74.66
5691;BME280;2870;42.680;23.364;2023-03-20T00:35:25;95424.00;;;6.29;75.09
5691;BME280;2870;42.680;23.364;2023-03-20T00:37:54;95430.34;;;6.29;75.66
5691;BME280;2870;42.680;23.364;2023-03-20T00:40:23;95427.09;;;6.25;75.94
5691;BME280;2870;42.680;23.364;2023-03-20T00:42:58;95420.47;;;6.28;75.80
5691;BME280;2870;42.680;23.364;2023-03-20T00:45:26;95420.44;;;6.09;76.06
5691;BME280;2870;42.680;23.364;2023-03-20T00:47:54;95435.72;;;6.03;76.21
5691;BME280;2870;42.680;23.364;2023-03-20T00:50:24;95425.03;;;6.07;76.14
5691;BME280;2870;42.680;23.364;2023-03-20T00:52:53;95429.50;;;6.16;77.10
5691;BME280;2870;42.680;23.364;2023-03-20T00:55:23;95429.22;;;6.19;77.11
5691;BME280;2870;42.680;23.364;2023-03-20T00:57:52;95420.59;;;6.17;77.69
5691;BME280;2870;42.680;23.364;2023-03-20T01:00:34;95420.84;;;6.19;76.95
5691;BME280;2870;42.680;23.364;2023-03-20T01:03:09;95426.22;;;6.11;77.19
5691;BME280;2870;42.680;23.364;2023-03-20T01:05:37;95413.66;;;6.05;77.34
5691;BME280;2870;42.680;23.364;2023-03-20T01:08:11;95410.66;;;6.03;77.70
5691;BME280;2870;42.680;23.364;2023-03-20T01:10:37;95409.13;;;6.02;77.87
5691;BME280;2870;42.680;23.364;2023-03-20T01:13:20;95413.00;;;5.93;78.44
5691;BME280;2870;42.680;23.364;2023-03-20T01:15:50;95401.81;;;5.99;78.60
5691;BME280;2870;42.680;23.364;2023-03-20T01:18:19;95395.06;;;5.89;78.20
5691;BME280;2870;42.680;23.364;2023-03-20T01:20:47;95396.31;;;5.93;77.74
5691;BME280;2870;42.680;23.364;2023-03-20T01:23:14;95396.19;;;5.80;77.79
5691;BME280;2870;42.680;23.364;2023-03-20T01:25:41;95406.19;;;5.89;78.03
5691;BME280;2870;42.680;23.364;2023-03-20T01:28:14;95408.28;;;5.82;78.25
5691;BME280;2870;42.680;23.364;2023-03-20T01:30:42;95403.56;;;5.72;78.47
5691;BME280;2870;42.680;23.364;2023-03-20T01:33:14;95403.41;;;5.64;79.16
5691;BME280;2870;42.680;23.364;2023-03-20T01:35:41;95402.25;;;5.78;78.84
5691;BME280;2870;42.680;23.364;2023-03-20T01:38:11;95405.75;;;5.84;78.69
5691;BME280;2870;42.680;23.364;2023-03-20T01:40:43;95410.09;;;5.80;79.00
5691;BME280;2870;42.680;23.364;2023-03-20T01:43:15;95417.81;;;5.68;79.73
5691;BME280;2870;42.680;23.364;2023-03-20T01:45:48;95410.31;;;5.57;79.58
5691;BME280;2870;42.680;23.364;2023-03-20T01:48:18;95412.06;;;5.55;79.69
5691;BME280;2870;42.680;23.364;2023-03-20T01:50:45;95413.44;;;5.43;80.04
5691;BME280;2870;42.680;23.364;2023-03-20T01:53:16;95412.88;;;5.50;80.35
5691;BME280;2870;42.680;23.364;2023-03-20T01:55:45;95416.16;;;5.54;80.17
5691;BME280;2870;42.680;23.364;2023-03-20T01:58:16;95415.97;;;5.16;80.84
5691;BME280;2870;42.680;23.364;2023-03-20T02:00:45;95414.44;;;5.15;81.29
5691;BME280;2870;42.680;23.364;2023-03-20T02:03:14;95417.00;;;5.43;80.87
5691;BME280;2870;42.680;23.364;2023-03-20T02:05:44;95405.50;;;5.58;79.98
5691;BME280;2870;42.680;23.364;2023-03-20T02:08:18;95408.25;;;5.34;80.63
5691;BME280;2870;42.680;23.364;2023-03-20T02:10:48;95406.63;;;5.44;80.53
5691;BME280;2870;42.680;23.364;2023-03-20T02:13:15;95406.16;;;5.40;80.67
5691;BME280;2870;42.680;23.364;2023-03-20T02:16:00;95405.09;;;5.43;80.92
5691;BME280;2870;42.680;23.364;2023-03-20T02:18:27;95402.84;;;5.41;81.07
5691;BME280;2870;42.680;23.364;2023-03-20T02:21:25;95405.63;;;5.41;81.27
5691;BME280;2870;42.680;23.364;2023-03-20T02:24:30;95399.84;;;5.39;81.34
5691;BME280;2870;42.680;23.364;2023-03-20T02:27:07;95402.31;;;5.43;81.14
5691;BME280;2870;42.680;23.364;2023-03-20T02:29:56;95405.69;;;5.36;81.36
5691;BME280;2870;42.680;23.364;2023-03-20T02:35:54;95406.78;;;5.21;82.25
5691;BME280;2870;42.680;23.364;2023-03-20T02:41:23;95405.78;;;5.24;81.67
5691;BME280;2870;42.680;23.364;2023-03-20T02:43:59;95407.56;;;5.22;82.43
5691;BME280;2870;42.680;23.364;2023-03-20T02:46:33;95401.56;;;5.12;82.51
5691;BME280;2870;42.680;23.364;2023-03-20T02:49:05;95398.56;;;5.04;82.12
5691;BME280;2870;42.680;23.364;2023-03-20T02:51:39;95398.38;;;4.97;82.12
5691;BME280;2870;42.680;23.364;2023-03-20T02:54:13;95395.19;;;4.82;82.81
5691;BME280;2870;42.680;23.364;2023-03-20T02:56:48;95398.94;;;4.90;82.87
5691;BME280;2870;42.680;23.364;2023-03-20T02:59:25;95394.63;;;4.94;82.47
5691;BME280;2870;42.680;23.364;2023-03-20T03:04:57;95392.31;;;4.98;82.10
5691;BME280;2870;42.680;23.364;2023-03-20T03:07:28;95387.94;;;5.09;82.09
5691;BME280;2870;42.680;23.364;2023-03-20T03:10:02;95393.00;;;5.04;82.50
5691;BME280;2870;42.680;23.364;2023-03-20T03:12:35;95394.06;;;5.01;82.86
5691;BME280;2870;42.680;23.364;2023-03-20T03:15:07;95394.63;;;4.94;82.79
5691;BME280;2870;42.680;23.364;2023-03-20T03:17:42;95397.63;;;4.96;82.97
5691;BME280;2870;42.680;23.364;2023-03-20T03:20:19;95389.56;;;4.93;83.38
5691;BME280;2870;42.680;23.364;2023-03-20T03:22:48;95379.16;;;4.99;82.97
5691;BME280;2870;42.680;23.364;2023-03-20T03:25:17;95393.34;;;4.95;82.93
5691;BME280;2870;42.680;23.364;2023-03-20T03:27:48;95385.50;;;4.99;83.16
5691;BME280;2870;42.680;23.364;2023-03-20T03:30:23;95395.41;;;4.89;83.19
5691;BME280;2870;42.680;23.364;2023-03-20T03:33:05;95394.91;;;4.91;83.24
5691;BME280;2870;42.680;23.364;2023-03-20T03:35:32;95394.63;;;4.94;83.12
5691;BME280;2870;42.680;23.364;2023-03-20T03:38:03;95388.56;;;4.90;83.28
5691;BME280;2870;42.680;23.364;2023-03-20T03:40:40;95390.66;;;4.84;83.46
5691;BME280;2870;42.680;23.364;2023-03-20T03:43:13;95397.44;;;4.89;83.00
5691;BME280;2870;42.680;23.364;2023-03-20T03:45:45;95394.72;;;4.77;83.62
5691;BME280;2870;42.680;23.364;2023-03-20T03:48:17;95397.75;;;4.79;83.34
5691;BME280;2870;42.680;23.364;2023-03-20T03:50:48;95392.03;;;4.66;83.80
5691;BME280;2870;42.680;23.364;2023-03-20T03:53:17;95396.59;;;4.58;84.20
5691;BME280;2870;42.680;23.364;2023-03-20T03:55:49;95395.09;;;4.57;84.33
5691;BME280;2870;42.680;23.364;2023-03-20T03:58:20;95391.03;;;4.58;84.21
5691;BME280;2870;42.680;23.364;2023-03-20T04:00:51;95393.59;;;4.56;83.89
5691;BME280;2870;42.680;23.364;2023-03-20T04:03:23;95388.75;;;4.62;83.72
5691;BME280;2870;42.680;23.364;2023-03-20T04:05:52;95389.41;;;4.79;82.73
5691;BME280;2870;42.680;23.364;2023-03-20T04:08:20;95388.66;;;4.79;82.18
5691;BME280;2870;42.680;23.364;2023-03-20T04:10:48;95379.88;;;4.69;82.21
5691;BME280;2870;42.680;23.364;2023-03-20T04:13:15;95391.34;;;4.55;83.14
5691;BME280;2870;42.680;23.364;2023-03-20T04:15:42;95378.91;;;4.61;83.07
5691;BME280;2870;42.680;23.364;2023-03-20T04:18:13;95375.88;;;4.59;82.53
5691;BME280;2870;42.680;23.364;2023-03-20T04:20:40;95377.66;;;4.57;82.88
5691;BME280;2870;42.680;23.364;2023-03-20T04:23:07;95371.56;;;4.64;82.67
5691;BME280;2870;42.680;23.364;2023-03-20T04:25:34;95375.91;;;4.53;83.01
5691;BME280;2870;42.680;23.364;2023-03-20T04:28:03;95371.44;;;4.45;83.11
5691;BME280;2870;42.680;23.364;2023-03-20T04:30:30;95376.69;;;4.54;82.08
5691;BME280;2870;42.680;23.364;2023-03-20T04:32:56;95377.59;;;4.68;81.01
5691;BME280;2870;42.680;23.364;2023-03-20T04:35:23;95373.88;;;4.60;80.80
5691;BME280;2870;42.680;23.364;2023-03-20T04:37:50;95379.88;;;4.69;80.73
5691;BME280;2870;42.680;23.364;2023-03-20T04:40:17;95386.47;;;4.66;81.19
5691;BME280;2870;42.680;23.364;2023-03-20T04:42:44;95386.69;;;4.68;82.33
5691;BME280;2870;42.680;23.364;2023-03-20T04:45:12;95380.91;;;4.66;81.72
5691;BME280;2870;42.680;23.364;2023-03-20T04:47:39;95390.38;;;4.82;82.05
5691;BME280;2870;42.680;23.364;2023-03-20T04:50:06;95391.94;;;4.77;82.08
5691;BME280;2870;42.680;23.364;2023-03-20T04:52:33;95394.00;;;4.71;82.73
5691;BME280;2870;42.680;23.364;2023-03-20T04:55:00;95409.41;;;4.72;83.02
5691;BME280;2870;42.680;23.364;2023-03-20T04:57:26;95403.06;;;4.77;82.53
5691;BME280;2870;42.680;23.364;2023-03-20T04:59:56;95409.09;;;4.82;82.81
5691;BME280;2870;42.680;23.364;2023-03-20T05:02:24;95411.72;;;5.04;81.30
5691;BME280;2870;42.680;23.364;2023-03-20T05:04:51;95413.34;;;4.94;81.10
5691;BME280;2870;42.680;23.364;2023-03-20T05:07:18;95413.78;;;4.98;80.40
5691;BME280;2870;42.680;23.364;2023-03-20T05:09:45;95411.81;;;4.93;81.00
5691;BME280;2870;42.680;23.364;2023-03-20T05:12:12;95414.84;;;4.95;80.61
5691;BME280;2870;42.680;23.364;2023-03-20T05:14:39;95421.66;;;4.94;79.60
5691;BME280;2870;42.680;23.364;2023-03-20T05:17:06;95424.03;;;5.14;79.50
5691;BME280;2870;42.680;23.364;2023-03-20T05:19:34;95414.91;;;5.19;79.69
5691;BME280;2870;42.680;23.364;2023-03-20T05:22:01;95413.22;;;5.11;80.34
5691;BME280;2870;42.680;23.364;2023-03-20T05:24:28;95421.88;;;5.31;79.93
5691;BME280;2870;42.680;23.364;2023-03-20T05:26:56;95425.25;;;5.54;79.00
5691;BME280;2870;42.680;23.364;2023-03-20T05:29:22;95428.38;;;5.45;78.80
5691;BME280;2870;42.680;23.364;2023-03-20T05:31:49;95418.44;;;5.50;79.63
5691;BME280;2870;42.680;23.364;2023-03-20T05:34:16;95428.72;;;5.61;79.88
5691;BME280;2870;42.680;23.364;2023-03-20T05:36:45;95429.47;;;5.61;79.78
5691;BME280;2870;42.680;23.364;2023-03-20T05:39:12;95428.69;;;5.66;80.01
5691;BME280;2870;42.680;23.364;2023-03-20T05:41:38;95431.63;;;5.79;79.65
5691;BME280;2870;42.680;23.364;2023-03-20T05:44:05;95431.94;;;5.70;76.75
5691;BME280;2870;42.680;23.364;2023-03-20T05:46:32;95437.47;;;5.46;77.37
5691;BME280;2870;42.680;23.364;2023-03-20T05:48:59;95428.31;;;5.51;76.90
5691;BME280;2870;42.680;23.364;2023-03-20T05:51:26;95435.75;;;5.97;77.30
5691;BME280;2870;42.680;23.364;2023-03-20T05:53:54;95439.06;;;6.20;74.95
5691;BME280;2870;42.680;23.364;2023-03-20T05:56:21;95442.47;;;6.32;74.82
5691;BME280;2870;42.680;23.364;2023-03-20T05:58:48;95438.97;;;6.50;73.42
5691;BME280;2870;42.680;23.364;2023-03-20T06:01:16;95434.66;;;6.30;74.50
5691;BME280;2870;42.680;23.364;2023-03-20T06:03:46;95442.88;;;6.42;74.36
5691;BME280;2870;42.680;23.364;2023-03-20T06:06:12;95430.75;;;6.58;73.00
5691;BME280;2870;42.680;23.364;2023-03-20T06:08:40;95431.81;;;6.74;72.58
5691;BME280;2870;42.680;23.364;2023-03-20T06:11:08;95425.97;;;6.77;72.41
5691;BME280;2870;42.680;23.364;2023-03-20T06:13:36;95434.97;;;7.02;71.95
5691;BME280;2870;42.680;23.364;2023-03-20T06:16:03;95430.94;;;6.84;72.06
5691;BME280;2870;42.680;23.364;2023-03-20T06:18:30;95421.13;;;7.15;71.50
5691;BME280;2870;42.680;23.364;2023-03-20T06:20:57;95434.81;;;7.13;71.55
5691;BME280;2870;42.680;23.364;2023-03-20T06:23:24;95437.63;;;7.13;71.56
5691;BME280;2870;42.680;23.364;2023-03-20T06:25:51;95429.28;;;6.95;72.08
5691;BME280;2870;42.680;23.364;2023-03-20T06:28:19;95443.94;;;7.14;71.53
5691;BME280;2870;42.680;23.364;2023-03-20T06:30:46;95439.44;;;7.43;70.13
5691;BME280;2870;42.680;23.364;2023-03-20T06:33:13;95437.84;;;7.48;70.30
5691;BME280;2870;42.680;23.364;2023-03-20T06:35:39;95434.47;;;7.55;68.75
5691;BME280;2870;42.680;23.364;2023-03-20T06:38:06;95443.31;;;7.72;69.51
5691;BME280;2870;42.680;23.364;2023-03-20T06:40:34;95436.00;;;7.82;69.74
5691;BME280;2870;42.680;23.364;2023-03-20T06:43:00;95438.19;;;8.03;67.55
5691;BME280;2870;42.680;23.364;2023-03-20T06:45:29;95443.38;;;8.12;66.73
5691;BME280;2870;42.680;23.364;2023-03-20T06:47:56;95439.31;;;8.39;66.02
5691;BME280;2870;42.680;23.364;2023-03-20T06:50:23;95441.22;;;8.31;66.88
5691;BME280;2870;42.680;23.364;2023-03-20T06:52:50;95442.09;;;8.66;65.46
5691;BME280;2870;42.680;23.364;2023-03-20T06:55:16;95434.97;;;8.91;64.43
5691;BME280;2870;42.680;23.364;2023-03-20T06:57:44;95432.78;;;8.37;64.95
5691;BME280;2870;42.680;23.364;2023-03-20T07:00:11;95428.53;;;8.83;65.89
5691;BME280;2870;42.680;23.364;2023-03-20T07:02:40;95427.03;;;9.16;63.00
5691;BME280;2870;42.680;23.364;2023-03-20T07:05:08;95429.00;;;9.42;62.54
5691;BME280;2870;42.680;23.364;2023-03-20T07:07:35;95432.41;;;9.48;61.37
5691;BME280;2870;42.680;23.364;2023-03-20T07:10:03;95426.31;;;9.99;60.91
5691;BME280;2870;42.680;23.364;2023-03-20T07:12:30;95433.66;;;10.31;60.86
5691;BME280;2870;42.680;23.364;2023-03-20T07:14:56;95433.16;;;9.91;60.05
5691;BME280;2870;42.680;23.364;2023-03-20T07:17:23;95430.16;;;9.68;61.96
5691;BME280;2870;42.680;23.364;2023-03-20T07:19:51;95431.69;;;10.83;58.65
5691;BME280;2870;42.680;23.364;2023-03-20T07:22:22;95422.84;;;11.07;58.01
5691;BME280;2870;42.680;23.364;2023-03-20T07:24:49;95422.63;;;11.05;56.98
5691;BME280;2870;42.680;23.364;2023-03-20T07:27:16;95422.28;;;11.17;56.11
5691;BME280;2870;42.680;23.364;2023-03-20T07:29:43;95424.34;;;11.16;56.95
5691;BME280;2870;42.680;23.364;2023-03-20T07:32:11;95421.03;;;11.33;55.78
5691;BME280;2870;42.680;23.364;2023-03-20T07:34:37;95422.91;;;11.46;55.36
5691;BME280;2870;42.680;23.364;2023-03-20T07:37:06;95428.06;;;11.93;55.67
5691;BME280;2870;42.680;23.364;2023-03-20T07:39:33;95436.88;;;12.43;53.01
5691;BME280;2870;42.680;23.364;2023-03-20T07:41:59;95418.16;;;12.86;51.28
5691;BME280;2870;42.680;23.364;2023-03-20T07:44:26;95428.38;;;13.14;52.13
5691;BME280;2870;42.680;23.364;2023-03-20T07:46:53;95423.44;;;12.82;53.35
5691;BME280;2870;42.680;23.364;2023-03-20T07:49:20;95426.63;;;13.34;50.38
5691;BME280;2870;42.680;23.364;2023-03-20T07:51:48;95424.75;;;13.61;48.96
5691;BME280;2870;42.680;23.364;2023-03-20T07:54:17;95426.75;;;13.43;50.69
5691;BME280;2870;42.680;23.364;2023-03-20T07:56:44;95431.94;;;13.87;49.35
5691;BME280;2870;42.680;23.364;2023-03-20T07:59:11;95433.09;;;14.51;48.29
5691;BME280;2870;42.680;23.364;2023-03-20T08:01:38;95444.09;;;14.99;46.89
5691;BME280;2870;42.680;23.364;2023-03-20T08:04:05;95439.69;;;14.89;47.11
5691;BME280;2870;42.680;23.364;2023-03-20T08:06:32;95433.00;;;15.28;45.40
5691;BME280;2870;42.680;23.364;2023-03-20T08:08:59;95428.50;;;14.81;47.74
5691;BME280;2870;42.680;23.364;2023-03-20T08:11:27;95432.38;;;15.47;46.21
5691;BME280;2870;42.680;23.364;2023-03-20T08:13:54;95435.13;;;15.82;44.63
5691;BME280;2870;42.680;23.364;2023-03-20T08:16:21;95426.91;;;15.49;43.69
5691;BME280;2870;42.680;23.364;2023-03-20T08:18:48;95423.03;;;15.27;45.15
5691;BME280;2870;42.680;23.364;2023-03-20T08:21:17;95422.81;;;16.33;43.46
5691;BME280;2870;42.680;23.364;2023-03-20T08:23:44;95435.31;;;16.30;42.73
5691;BME280;2870;42.680;23.364;2023-03-20T08:26:11;95426.47;;;16.63;42.50
5691;BME280;2870;42.680;23.364;2023-03-20T08:28:39;95436.06;;;17.16;40.92
5691;BME280;2870;42.680;23.364;2023-03-20T08:31:07;95432.41;;;16.48;41.57
5691;BME280;2870;42.680;23.364;2023-03-20T08:33:34;95441.19;;;16.61;41.15
5691;BME280;2870;42.680;23.364;2023-03-20T08:36:00;95434.50;;;15.74;42.96
5691;BME280;2870;42.680;23.364;2023-03-20T08:38:27;95434.97;;;16.07;44.49
5691;BME280;2870;42.680;23.364;2023-03-20T08:40:54;95436.06;;;15.84;45.17
5691;BME280;2870;42.680;23.364;2023-03-20T08:43:21;95443.28;;;16.51;43.20
5691;BME280;2870;42.680;23.364;2023-03-20T08:45:49;95429.50;;;17.04;40.82
5691;BME280;2870;42.680;23.364;2023-03-20T08:48:16;95426.22;;;17.36;40.43
5691;BME280;2870;42.680;23.364;2023-03-20T08:50:42;95428.59;;;16.72;42.80
5691;BME280;2870;42.680;23.364;2023-03-20T08:53:10;95422.94;;;18.00;40.42
5691;BME280;2870;42.680;23.364;2023-03-20T08:55:37;95422.84;;;17.88;40.73
5691;BME280;2870;42.680;23.364;2023-03-20T08:58:04;95434.34;;;17.71;39.78
5691;BME280;2870;42.680;23.364;2023-03-20T09:00:31;95417.13;;;17.09;41.02
5691;BME280;2870;42.680;23.364;2023-03-20T09:02:59;95416.91;;;17.65;41.05
5691;BME280;2870;42.680;23.364;2023-03-20T09:05:26;95417.66;;;17.56;42.29
5691;BME280;2870;42.680;23.364;2023-03-20T09:07:53;95420.41;;;18.57;38.70
5691;BME280;2870;42.680;23.364;2023-03-20T09:10:21;95410.75;;;18.19;38.37
5691;BME280;2870;42.680;23.364;2023-03-20T09:12:48;95411.09;;;19.09;36.52
5691;BME280;2870;42.680;23.364;2023-03-20T09:15:15;95406.84;;;17.93;38.45
5691;BME280;2870;42.680;23.364;2023-03-20T09:17:43;95404.66;;;17.72;39.48
5691;BME280;2870;42.680;23.364;2023-03-20T09:20:11;95403.28;;;18.45;38.23
5691;BME280;2870;42.680;23.364;2023-03-20T09:22:38;95404.28;;;18.80;38.17
5691;BME280;2870;42.680;23.364;2023-03-20T09:25:08;95405.38;;;18.66;37.85
5691;BME280;2870;42.680;23.364;2023-03-20T09:27:35;95390.94;;;18.83;38.19
5691;BME280;2870;42.680;23.364;2023-03-20T09:30:02;95392.94;;;19.80;36.24
5691;BME280;2870;42.680;23.364;2023-03-20T09:32:29;95399.44;;;19.59;36.20
5691;BME280;2870;42.680;23.364;2023-03-20T09:34:55;95397.28;;;19.15;38.62
5691;BME280;2870;42.680;23.364;2023-03-20T09:37:24;95381.66;;;18.83;38.99
5691;BME280;2870;42.680;23.364;2023-03-20T09:39:51;95385.13;;;19.36;37.33
5691;BME280;2870;42.680;23.364;2023-03-20T09:42:26;95375.84;;;19.02;39.02
5691;BME280;2870;42.680;23.364;2023-03-20T09:45:03;95376.09;;;19.39;35.91
5691;BME280;2870;42.680;23.364;2023-03-20T09:47:36;95373.75;;;19.02;37.57
5691;BME280;2870;42.680;23.364;2023-03-20T09:50:15;95365.91;;;18.91;37.71
5691;BME280;2870;42.680;23.364;2023-03-20T09:52:54;95359.25;;;18.98;37.44
5691;BME280;2870;42.680;23.364;2023-03-20T09:55:29;95355.66;;;19.31;37.26
5691;BME280;2870;42.680;23.364;2023-03-20T09:58:02;95337.97;;;19.89;35.78
5691;BME280;2870;42.680;23.364;2023-03-20T10:00:33;95336.84;;;19.94;35.38
5691;BME280;2870;42.680;23.364;2023-03-20T10:03:03;95339.06;;;20.19;34.40
5691;BME280;2870;42.680;23.364;2023-03-20T10:05:34;95332.72;;;20.93;34.27
5691;BME280;2870;42.680;23.364;2023-03-20T10:08:09;95323.00;;;20.73;34.26
5691;BME280;2870;42.680;23.364;2023-03-20T10:10:47;95313.19;;;20.76;34.50
5691;BME280;2870;42.680;23.364;2023-03-20T10:13:47;95308.75;;;19.77;34.16
5691;BME280;2870;42.680;23.364;2023-03-20T10:16:25;95309.19;;;20.44;34.85
5691;BME280;2870;42.680;23.364;2023-03-20T10:19:00;95298.38;;;20.66;33.14
5691;BME280;2870;42.680;23.364;2023-03-20T10:21:37;95304.63;;;20.87;33.17
5691;BME280;2870;42.680;23.364;2023-03-20T10:24:12;95304.13;;;20.30;34.47
5691;BME280;2870;42.680;23.364;2023-03-20T10:26:45;95300.44;;;20.16;35.13
5691;BME280;2870;42.680;23.364;2023-03-20T10:29:19;95299.59;;;19.78;36.62
5691;BME280;2870;42.680;23.364;2023-03-20T10:31:56;95291.09;;;20.88;34.38
5691;BME280;2870;42.680;23.364;2023-03-20T10:34:38;95291.84;;;21.14;33.20
5691;BME280;2870;42.680;23.364;2023-03-20T10:37:21;95291.00;;;20.49;34.46
5691;BME280;2870;42.680;23.364;2023-03-20T10:40:02;95288.13;;;20.86;34.58
5691;BME280;2870;42.680;23.364;2023-03-20T10:42:37;95285.28;;;21.11;32.68
5691;BME280;2870;42.680;23.364;2023-03-20T10:45:17;95268.31;;;20.88;34.80
5691;BME280;2870;42.680;23.364;2023-03-20T10:47:50;95272.34;;;20.71;34.76
5691;BME280;2870;42.680;23.364;2023-03-20T10:50:20;95263.66;;;20.69;33.56
5691;BME280;2870;42.680;23.364;2023-03-20T10:52:50;95265.56;;;20.41;33.39
5691;BME280;2870;42.680;23.364;2023-03-20T10:55:22;95260.22;;;20.59;33.07
5691;BME280;2870;42.680;23.364;2023-03-20T10:57:55;95259.47;;;20.58;33.71
5691;BME280;2870;42.680;23.364;2023-03-20T11:00:24;95244.22;;;20.17;34.81
5691;BME280;2870;42.680;23.364;2023-03-20T11:02:52;95238.94;;;19.99;34.10
5691;BME280;2870;42.680;23.364;2023-03-20T11:05:23;95247.38;;;20.83;34.63
5691;BME280;2870;42.680;23.364;2023-03-20T11:07:59;95250.09;;;21.07;33.38
5691;BME280;2870;42.680;23.364;2023-03-20T11:10:30;95244.56;;;20.97;32.85
5691;BME280;2870;42.680;23.364;2023-03-20T11:12:57;95235.97;;;20.83;34.65
5691;BME280;2870;42.680;23.364;2023-03-20T11:15:32;95230.19;;;20.70;33.68
5691;BME280;2870;42.680;23.364;2023-03-20T11:18:00;95219.34;;;20.80;33.03
5691;BME280;2870;42.680;23.364;2023-03-20T11:20:32;95222.69;;;20.88;33.03
5691;BME280;2870;42.680;23.364;2023-03-20T11:23:02;95220.84;;;20.55;35.84
5691;BME280;2870;42.680;23.364;2023-03-20T11:25:32;95211.09;;;20.35;34.48
5691;BME280;2870;42.680;23.364;2023-03-20T11:28:18;95209.66;;;20.85;34.07
5691;BME280;2870;42.680;23.364;2023-03-20T11:30:45;95200.81;;;20.92;33.60
5691;BME280;2870;42.680;23.364;2023-03-20T11:33:14;95203.94;;;21.10;32.12
5691;BME280;2870;42.680;23.364;2023-03-20T11:35:44;95189.47;;;21.06;32.07
5691;BME280;2870;42.680;23.364;2023-03-20T11:38:13;95195.41;;;20.85;31.43
5691;BME280;2870;42.680;23.364;2023-03-20T11:40:43;95154.09;;;20.47;32.16
5691;BME280;2870;42.680;23.364;2023-03-20T11:43:11;95179.34;;;20.15;31.90
5691;BME280;2870;42.680;23.364;2023-03-20T11:45:41;95179.91;;;20.62;31.88
5691;BME280;2870;42.680;23.364;2023-03-20T11:48:15;95171.69;;;20.69;31.16
5691;BME280;2870;42.680;23.364;2023-03-20T11:50:46;95162.00;;;20.74;30.53
5691;BME280;2870;42.680;23.364;2023-03-20T11:53:23;95157.94;;;20.90;30.14
5691;BME280;2870;42.680;23.364;2023-03-20T11:56:14;95155.53;;;20.99;29.75
5691;BME280;2870;42.680;23.364;2023-03-20T11:58:52;95148.63;;;21.29;28.73
5691;BME280;2870;42.680;23.364;2023-03-20T12:01:21;95153.41;;;21.52;29.60
5691;BME280;2870;42.680;23.364;2023-03-20T12:03:51;95146.78;;;21.08;30.15
5691;BME280;2870;42.680;23.364;2023-03-20T12:06:21;95138.53;;;21.01;29.22
5691;BME280;2870;42.680;23.364;2023-03-20T12:08:53;95127.88;;;21.01;29.54
5691;BME280;2870;42.680;23.364;2023-03-20T12:11:37;95133.06;;;21.18;29.43
5691;BME280;2870;42.680;23.364;2023-03-20T12:14:14;95126.22;;;21.37;28.15
5691;BME280;2870;42.680;23.364;2023-03-20T12:16:42;95132.78;;;21.67;28.75
5691;BME280;2870;42.680;23.364;2023-03-20T12:19:13;95118.41;;;21.65;27.69
5691;BME280;2870;42.680;23.364;2023-03-20T12:21:45;95119.84;;;21.94;28.30
5691;BME280;2870;42.680;23.364;2023-03-20T12:24:19;95111.94;;;21.65;27.30
5691;BME280;2870;42.680;23.364;2023-03-20T12:26:53;95114.56;;;21.88;26.80
5691;BME280;2870;42.680;23.364;2023-03-20T12:29:30;95105.13;;;22.00;26.34
5691;BME280;2870;42.680;23.364;2023-03-20T12:32:01;95109.78;;;22.07;26.35
5691;BME280;2870;42.680;23.364;2023-03-20T12:34:34;95106.94;;;21.93;26.08
5691;BME280;2870;42.680;23.364;2023-03-20T12:37:03;95105.66;;;21.96;27.36
5691;BME280;2870;42.680;23.364;2023-03-20T12:39:32;95103.13;;;22.02;26.73
5691;BME280;2870;42.680;23.364;2023-03-20T12:42:08;95099.53;;;22.02;25.94
5691;BME280;2870;42.680;23.364;2023-03-20T12:44:45;95094.56;;;22.32;24.94
5691;BME280;2870;42.680;23.364;2023-03-20T12:47:39;95097.19;;;21.98;24.49
5691;BME280;2870;42.680;23.364;2023-03-20T12:50:18;95081.19;;;21.63;24.87
5691;BME280;2870;42.680;23.364;2023-03-20T12:52:56;95080.53;;;21.79;24.89
5691;BME280;2870;42.680;23.364;2023-03-20T12:55:41;95078.78;;;22.01;23.54
5691;BME280;2870;42.680;23.364;2023-03-20T12:58:21;95081.66;;;22.31;24.33
5691;BME280;2870;42.680;23.364;2023-03-20T13:00:55;95081.09;;;22.05;24.53
5691;BME280;2870;42.680;23.364;2023-03-20T13:03:37;95066.75;;;21.89;24.68
5691;BME280;2870;42.680;23.364;2023-03-20T13:06:13;95059.84;;;21.94;24.19
5691;BME280;2870;42.680;23.364;2023-03-20T13:08:51;95062.75;;;21.80;23.69
5691;BME280;2870;42.680;23.364;2023-03-20T13:11:28;95061.22;;;22.07;24.79
5691;BME280;2870;42.680;23.364;2023-03-20T13:14:02;95058.69;;;21.99;24.16
5691;BME280;2870;42.680;23.364;2023-03-20T13:16:39;95053.78;;;22.15;24.57
5691;BME280;2870;42.680;23.364;2023-03-20T13:19:18;95043.13;;;22.02;25.24
5691;BME280;2870;42.680;23.364;2023-03-20T13:21:52;95054.16;;;22.23;24.49
5691;BME280;2870;42.680;23.364;2023-03-20T13:24:33;95037.44;;;22.32;24.30
5691;BME280;2870;42.680;23.364;2023-03-20T13:27:10;95044.47;;;22.15;24.49
5691;BME280;2870;42.680;23.364;2023-03-20T13:29:45;95035.06;;;22.42;24.52
5691;BME280;2870;42.680;23.364;2023-03-20T13:32:22;95038.00;;;22.60;23.71
5691;BME280;2870;42.680;23.364;2023-03-20T13:35:01;95031.88;;;22.20;23.82
5691;BME280;2870;42.680;23.364;2023-03-20T13:37:33;95025.72;;;22.26;24.31
5691;BME280;2870;42.680;23.364;2023-03-20T13:40:12;95028.00;;;22.13;23.63
5691;BME280;2870;42.680;23.364;2023-03-20T13:42:45;95013.66;;;21.84;24.11
5691;BME280;2870;42.680;23.364;2023-03-20T13:45:25;95015.41;;;22.05;24.24